createdAt,value
2023-02-27T00:02:00.464Z,19.08
2023-02-27T00:04:29.000Z,19.10
2023-02-27T00:06:57.450Z,19.09
2023-02-27T00:09:26.079Z,19.09
2023-02-27T00:11:54.505Z,19.08
2023-02-27T00:14:24.267Z,19.08
2023-02-27T00:16:52.705Z,19.08
2023-02-27T00:19:21.631Z,19.07
2023-02-27T00:21:50.024Z,19.06
2023-02-27T00:24:18.428Z,19.06
2023-02-27T00:26:46.875Z,19.05
2023-02-27T00:29:15.401Z,19.05
2023-02-27T00:31:45.305Z,19.04
2023-02-27T00:34:13.699Z,19.03
2023-02-27T00:36:42.380Z,19.01
2023-02-27T00:39:10.824Z,19.01
2023-02-27T00:41:40.066Z,19.00
2023-02-27T00:44:08.699Z,19.01
2023-02-27T00:46:37.111Z,19.00
2023-02-27T00:49:06.939Z,19.00
2023-02-27T00:51:35.399Z,18.98
2023-02-27T00:54:04.931Z,18.99
2023-02-27T00:56:34.610Z,18.97
2023-02-27T00:59:03.040Z,18.98
2023-02-27T01:01:31.556Z,18.97
2023-02-27T01:04:00.038Z,18.97
2023-02-27T01:06:29.922Z,18.96
2023-02-27T01:08:58.315Z,18.95
2023-02-27T01:11:27.097Z,18.96
2023-02-27T01:13:55.692Z,18.96
2023-02-27T01:16:24.257Z,18.95
2023-02-27T01:18:53.706Z,18.95
2023-02-27T01:21:25.606Z,18.96
2023-02-27T01:23:55.702Z,18.95
2023-02-27T01:26:24.163Z,18.95
2023-02-27T01:28:52.610Z,18.95
2023-02-27T01:31:21.744Z,18.94
2023-02-27T01:33:50.161Z,18.94
2023-02-27T01:36:18.597Z,18.94
2023-02-27T01:38:47.438Z,18.93
2023-02-27T01:41:17.167Z,18.93
2023-02-27T01:43:59.458Z,18.91
2023-02-27T01:46:28.867Z,18.92
2023-02-27T01:49:01.478Z,18.91
2023-02-27T01:51:34.083Z,18.92
2023-02-27T01:54:05.205Z,18.92
2023-02-27T01:56:35.318Z,18.93
2023-02-27T01:59:07.192Z,18.92
2023-02-27T02:01:36.350Z,18.92
2023-02-27T02:04:13.563Z,18.91
2023-02-27T02:06:47.644Z,18.91
2023-02-27T02:09:19.343Z,18.90
2023-02-27T02:11:49.938Z,18.88
2023-02-27T02:14:19.720Z,18.90
2023-02-27T02:17:04.002Z,18.89
2023-02-27T02:19:59.416Z,18.88
2023-02-27T02:23:03.242Z,18.87
2023-02-27T02:26:18.406Z,18.88
2023-02-27T02:29:14.546Z,18.88
2023-02-27T02:32:21.859Z,18.87
2023-02-27T02:35:20.603Z,18.87
2023-02-27T02:38:16.442Z,18.87
2023-02-27T02:40:53.744Z,18.86
2023-02-27T02:43:28.494Z,18.86
2023-02-27T02:46:04.355Z,18.85
2023-02-27T02:48:42.914Z,18.84
2023-02-27T02:51:19.536Z,18.84
2023-02-27T02:54:01.430Z,18.85
2023-02-27T02:56:35.862Z,18.85
2023-02-27T02:59:11.828Z,18.84
2023-02-27T03:01:45.893Z,18.84
2023-02-27T03:04:17.131Z,18.83
2023-02-27T03:06:53.479Z,18.84
2023-02-27T03:09:30.063Z,18.83
2023-02-27T03:12:02.739Z,18.82
2023-02-27T03:14:36.571Z,18.82
2023-02-27T03:17:11.917Z,18.81
2023-02-27T03:19:45.766Z,18.81
2023-02-27T03:22:18.209Z,18.81
2023-02-27T03:24:52.436Z,18.81
2023-02-27T03:27:23.822Z,18.80
2023-02-27T03:29:58.340Z,18.80
2023-02-27T03:32:33.910Z,18.80
2023-02-27T03:35:03.585Z,18.79
2023-02-27T03:37:40.500Z,18.79
2023-02-27T03:40:21.314Z,18.77
2023-02-27T03:42:57.346Z,18.78
2023-02-27T03:45:43.325Z,18.78
2023-02-27T03:48:12.738Z,18.78
2023-02-27T03:50:41.266Z,18.79
2023-02-27T03:53:16.987Z,18.78
2023-02-27T03:55:48.231Z,18.78
2023-02-27T03:58:16.701Z,18.77
2023-02-27T04:00:45.187Z,18.77
2023-02-27T04:03:14.108Z,18.77
2023-02-27T04:05:42.979Z,18.77
2023-02-27T04:08:33.467Z,18.75
2023-02-27T04:11:29.665Z,18.76
2023-02-27T04:14:11.560Z,18.77
2023-02-27T04:16:51.536Z,18.77
2023-02-27T04:19:42.594Z,18.76
2023-02-27T04:22:19.942Z,18.76
2023-02-27T04:24:56.528Z,18.75
2023-02-27T04:27:35.269Z,18.75
2023-02-27T04:30:17.588Z,18.74
2023-02-27T04:32:54.328Z,18.74
2023-02-27T04:35:27.575Z,18.73
2023-02-27T04:37:59.412Z,18.73
2023-02-27T04:40:33.296Z,18.67
2023-02-27T04:43:07.754Z,18.68
2023-02-27T04:45:38.488Z,18.72
2023-02-27T04:48:11.864Z,18.83
2023-02-27T04:50:46.208Z,18.97
2023-02-27T04:53:19.408Z,19.16
2023-02-27T04:55:51.598Z,19.31
2023-02-27T04:58:27.689Z,19.40
2023-02-27T05:01:02.206Z,19.51
2023-02-27T05:03:35.379Z,19.60
2023-02-27T05:06:04.258Z,19.69
2023-02-27T05:08:36.914Z,19.78
2023-02-27T05:11:13.032Z,19.85
2023-02-27T05:13:46.314Z,19.93
2023-02-27T05:16:21.129Z,20.01
2023-02-27T05:18:50.369Z,20.08
2023-02-27T05:21:27.857Z,20.15
2023-02-27T05:24:10.527Z,20.23
2023-02-27T05:26:52.767Z,20.33
2023-02-27T05:29:33.000Z,20.41
2023-02-27T05:32:05.645Z,20.46
2023-02-27T05:34:38.829Z,20.48
2023-02-27T05:37:11.629Z,20.52
2023-02-27T05:39:43.033Z,20.57
2023-02-27T05:42:18.032Z,20.66
2023-02-27T05:44:52.937Z,20.71
2023-02-27T05:47:24.668Z,20.75
2023-02-27T05:49:58.536Z,20.76
2023-02-27T05:52:29.013Z,20.78
2023-02-27T05:55:02.079Z,20.82
2023-02-27T05:57:37.680Z,20.85
2023-02-27T06:00:14.740Z,20.87
2023-02-27T06:02:44.756Z,20.86
2023-02-27T06:05:16.319Z,20.89
2023-02-27T06:07:44.842Z,20.90
2023-02-27T06:10:15.644Z,20.91
2023-02-27T06:12:44.097Z,20.91
2023-02-27T06:15:14.415Z,20.91
2023-02-27T06:17:42.883Z,20.94
2023-02-27T06:20:12.943Z,21.00
2023-02-27T06:22:41.421Z,21.06
2023-02-27T06:25:10.887Z,21.12
2023-02-27T06:27:39.316Z,21.14
2023-02-27T06:30:09.083Z,21.15
2023-02-27T06:32:38.840Z,21.21
2023-02-27T06:35:08.267Z,21.23
2023-02-27T06:37:37.432Z,21.25
2023-02-27T06:40:11.533Z,21.26
2023-02-27T06:42:40.174Z,21.26
2023-02-27T06:45:10.073Z,21.25
2023-02-27T06:47:40.128Z,21.22
2023-02-27T06:50:11.211Z,21.18
2023-02-27T06:52:40.141Z,21.13
2023-02-27T06:55:09.924Z,21.10
2023-02-27T06:57:38.456Z,21.04
2023-02-27T07:00:08.251Z,20.97
2023-02-27T07:02:36.690Z,20.90
2023-02-27T07:05:08.368Z,20.84
2023-02-27T07:07:38.267Z,20.76
2023-02-27T07:10:11.201Z,20.65
2023-02-27T07:12:39.901Z,20.49
2023-02-27T07:15:09.468Z,20.34
2023-02-27T07:17:38.057Z,20.25
2023-02-27T07:20:11.130Z,20.08
2023-02-27T07:22:40.173Z,19.94
2023-02-27T07:25:09.967Z,19.87
2023-02-27T07:27:38.512Z,19.77
2023-02-27T07:30:08.180Z,19.69
2023-02-27T07:32:36.678Z,19.60
2023-02-27T07:35:05.666Z,19.53
2023-02-27T07:37:35.491Z,19.48
2023-02-27T07:40:07.556Z,19.44
2023-02-27T07:42:36.373Z,19.40
2023-02-27T07:45:05.908Z,19.38
2023-02-27T07:47:34.408Z,19.37
2023-02-27T07:50:04.768Z,19.43
2023-02-27T07:52:33.375Z,19.49
2023-02-27T07:55:03.227Z,19.54
2023-02-27T07:57:31.748Z,19.63
2023-02-27T08:00:00.192Z,19.68
2023-02-27T08:02:28.637Z,19.73
2023-02-27T08:04:57.239Z,19.77
2023-02-27T08:07:26.034Z,19.80
2023-02-27T08:09:54.542Z,19.80
2023-02-27T08:12:24.757Z,19.82
2023-02-27T08:14:53.196Z,19.83
2023-02-27T08:17:21.750Z,19.83
2023-02-27T08:19:50.170Z,19.83
2023-02-27T08:22:18.628Z,19.83
2023-02-27T08:24:47.119Z,19.81
2023-02-27T08:27:15.626Z,19.80
2023-02-27T08:29:46.386Z,19.78
2023-02-27T08:32:14.842Z,19.75
2023-02-27T08:34:43.305Z,19.73
2023-02-27T08:37:11.805Z,19.72
2023-02-27T08:39:40.275Z,19.66
2023-02-27T08:42:08.849Z,19.63
2023-02-27T08:44:37.327Z,19.61
2023-02-27T08:47:07.176Z,19.60
2023-02-27T08:49:35.614Z,19.58
2023-02-27T08:52:05.436Z,19.58
2023-02-27T08:54:33.859Z,19.55
2023-02-27T08:57:02.541Z,19.56
2023-02-27T08:59:31.023Z,19.54
2023-02-27T09:01:59.990Z,19.52
2023-02-27T09:04:30.075Z,19.50
2023-02-27T09:06:58.519Z,19.46
2023-02-27T09:09:27.458Z,19.47
2023-02-27T09:11:55.859Z,19.43
2023-02-27T09:14:25.046Z,19.38
2023-02-27T09:16:53.505Z,19.34
2023-02-27T09:19:21.946Z,19.31
2023-02-27T09:21:52.059Z,19.28
2023-02-27T09:24:21.006Z,19.25
2023-02-27T09:26:50.430Z,19.24
2023-02-27T09:29:19.627Z,19.21
2023-02-27T09:31:48.357Z,19.20
2023-02-27T09:34:16.982Z,19.24
2023-02-27T09:36:45.354Z,19.25
2023-02-27T09:39:15.208Z,19.28
2023-02-27T09:41:53.477Z,19.29
2023-02-27T09:44:45.702Z,19.29
2023-02-27T09:47:19.497Z,19.31
2023-02-27T09:49:56.368Z,19.32
2023-02-27T09:52:24.906Z,19.32
2023-02-27T09:54:55.155Z,19.32
2023-02-27T09:57:36.018Z,19.32
2023-02-27T10:00:12.265Z,19.32
2023-02-27T10:02:56.437Z,19.33
2023-02-27T10:05:36.683Z,19.33
2023-02-27T10:08:10.170Z,19.32
2023-02-27T10:10:46.859Z,19.32
2023-02-27T10:13:36.989Z,19.32
2023-02-27T10:16:06.876Z,19.32
2023-02-27T10:18:42.171Z,19.30
2023-02-27T10:21:15.093Z,19.32
2023-02-27T10:23:50.363Z,19.29
2023-02-27T10:26:23.073Z,19.22
2023-02-27T10:28:51.503Z,19.14
2023-02-27T10:31:24.728Z,19.06
2023-02-27T10:33:54.143Z,19.01
2023-02-27T10:36:33.176Z,18.92
2023-02-27T10:39:07.786Z,18.82
2023-02-27T10:41:40.034Z,18.75
2023-02-27T10:44:09.639Z,18.72
2023-02-27T10:46:38.750Z,18.67
2023-02-27T10:49:16.937Z,18.58
2023-02-27T10:51:47.953Z,18.47
2023-02-27T10:54:23.489Z,18.48
2023-02-27T10:56:55.569Z,18.48
2023-02-27T10:59:27.213Z,18.52
2023-02-27T11:01:57.577Z,18.50
2023-02-27T11:04:33.924Z,18.53
2023-02-27T11:07:05.358Z,18.38
2023-02-27T11:09:35.199Z,18.23
2023-02-27T11:12:29.360Z,18.08
2023-02-27T11:14:59.994Z,18.08
2023-02-27T11:17:30.274Z,18.07
2023-02-27T11:20:00.488Z,18.03
2023-02-27T11:22:30.666Z,17.96
2023-02-27T11:25:22.146Z,17.64
2023-02-27T11:27:52.400Z,16.96
2023-02-27T11:30:27.981Z,16.43
2023-02-27T11:32:59.005Z,15.35
2023-02-27T11:35:30.205Z,14.77
2023-02-27T11:38:01.919Z,15.26
2023-02-27T11:40:33.030Z,15.74
2023-02-27T11:43:06.495Z,16.18
2023-02-27T11:46:20.352Z,16.55
2023-02-27T11:48:30.912Z,16.95
2023-02-27T11:51:25.104Z,17.29
2023-02-27T11:54:12.114Z,17.51
2023-02-27T11:56:44.768Z,17.68
2023-02-27T11:59:41.784Z,17.86
2023-02-27T12:02:19.318Z,17.98
2023-02-27T12:04:52.930Z,18.09
2023-02-27T12:07:25.908Z,18.17
2023-02-27T12:10:04.626Z,18.25
2023-02-27T12:12:41.451Z,18.31
2023-02-27T12:15:25.052Z,18.39
2023-02-27T12:18:00.707Z,18.45
2023-02-27T12:20:36.539Z,18.50
2023-02-27T12:23:15.086Z,18.52
2023-02-27T12:25:47.175Z,18.57
2023-02-27T12:28:30.862Z,18.58
2023-02-27T12:31:12.920Z,18.62
2023-02-27T12:33:45.695Z,18.64
2023-02-27T12:36:14.844Z,18.66
2023-02-27T12:38:43.514Z,18.69
2023-02-27T12:41:30.389Z,18.69
2023-02-27T12:44:12.008Z,18.65
2023-02-27T12:46:51.644Z,18.66
2023-02-27T12:49:31.359Z,18.65
2023-02-27T12:52:12.843Z,18.64
2023-02-27T12:54:52.847Z,18.61
2023-02-27T12:57:31.925Z,18.56
2023-02-27T13:00:10.328Z,18.51
2023-02-27T13:03:03.434Z,18.49
2023-02-27T13:05:40.533Z,18.50
2023-02-27T13:08:21.725Z,18.49
2023-02-27T13:10:55.912Z,18.50
2023-02-27T13:13:28.547Z,18.54
2023-02-27T13:16:00.645Z,18.61
2023-02-27T13:18:37.702Z,18.65
2023-02-27T13:21:12.698Z,18.72
2023-02-27T13:23:59.532Z,18.75
2023-02-27T13:26:32.855Z,18.78
2023-02-27T13:29:01.966Z,18.80
2023-02-27T13:31:42.955Z,18.80
2023-02-27T13:34:21.658Z,18.80
2023-02-27T13:36:53.549Z,18.79
2023-02-27T13:39:57.131Z,18.77
2023-02-27T13:42:55.015Z,18.78
2023-02-27T13:45:55.416Z,18.77
2023-02-27T13:48:46.905Z,18.76
2023-02-27T13:51:47.056Z,18.74
2023-02-27T13:54:27.997Z,18.75
2023-02-27T13:57:21.314Z,18.72
2023-02-27T14:00:01.430Z,18.74
2023-02-27T14:02:57.820Z,18.72
2023-02-27T14:05:32.158Z,18.71
2023-02-27T14:08:10.322Z,18.70
2023-02-27T14:10:41.535Z,18.68
2023-02-27T14:13:43.531Z,18.67
2023-02-27T14:16:13.142Z,18.67
2023-02-27T14:18:57.130Z,18.65
2023-02-27T14:21:54.486Z,18.64
2023-02-27T14:24:29.848Z,18.63
2023-02-27T14:26:58.929Z,18.63
2023-02-27T14:29:31.261Z,18.59
2023-02-27T14:32:04.611Z,18.61
2023-02-27T14:34:33.382Z,18.60
2023-02-27T14:37:07.197Z,18.56
2023-02-27T14:39:39.001Z,18.60
2023-02-27T14:42:40.955Z,18.64
2023-02-27T14:45:15.434Z,18.67
2023-02-27T14:47:45.594Z,18.69
2023-02-27T14:50:25.960Z,18.69
2023-02-27T14:52:54.430Z,18.70
2023-02-27T14:55:29.554Z,18.72
2023-02-27T14:58:01.034Z,18.74
2023-02-27T15:00:35.308Z,18.74
2023-02-27T15:03:13.199Z,18.77
2023-02-27T15:05:41.927Z,18.75
2023-02-27T15:08:17.501Z,18.74
2023-02-27T15:10:47.994Z,18.72
2023-02-27T15:13:26.125Z,18.72
2023-02-27T15:16:27.722Z,18.69
2023-02-27T15:19:02.231Z,18.69
2023-02-27T15:21:33.748Z,18.69
2023-02-27T15:24:03.862Z,18.68
2023-02-27T15:26:37.235Z,18.68
2023-02-27T15:29:07.238Z,18.68
2023-02-27T15:31:36.349Z,18.68
2023-02-27T15:34:05.155Z,18.68
2023-02-27T15:36:35.395Z,18.68
2023-02-27T15:39:17.542Z,18.69
2023-02-27T15:41:49.715Z,18.69
2023-02-27T15:44:20.695Z,18.69
2023-02-27T15:46:49.514Z,18.69
2023-02-27T15:49:19.864Z,18.71
2023-02-27T15:52:01.328Z,18.74
2023-02-27T15:54:34.474Z,18.77
2023-02-27T15:57:07.544Z,18.78
2023-02-27T15:59:41.193Z,18.76
2023-02-27T16:02:19.770Z,18.77
2023-02-27T16:04:48.715Z,18.78
2023-02-27T16:07:21.430Z,18.80
2023-02-27T16:09:52.825Z,18.82
2023-02-27T16:12:30.338Z,18.86
2023-02-27T16:15:22.228Z,18.85
2023-02-27T16:17:55.504Z,18.85
2023-02-27T16:20:38.517Z,18.84
2023-02-27T16:23:16.176Z,18.86
2023-02-27T16:26:01.435Z,18.91
2023-02-27T16:28:34.115Z,18.99
2023-02-27T16:31:02.984Z,19.03
2023-02-27T16:33:36.605Z,19.09
2023-02-27T16:36:19.229Z,19.17
2023-02-27T16:38:48.980Z,19.21
2023-02-27T16:41:19.884Z,19.21
2023-02-27T16:43:50.052Z,19.21
2023-02-27T16:46:23.714Z,19.20
2023-02-27T16:48:54.397Z,19.19
2023-02-27T16:51:25.061Z,19.17
2023-02-27T16:53:55.171Z,19.15
2023-02-27T16:56:37.374Z,19.12
2023-02-27T16:59:08.462Z,19.13
2023-02-27T17:01:36.989Z,19.17
2023-02-27T17:04:16.465Z,19.24
2023-02-27T17:06:52.948Z,19.31
2023-02-27T17:09:21.608Z,19.34
2023-02-27T17:11:50.181Z,19.37
2023-02-27T17:14:20.149Z,19.41
2023-02-27T17:16:49.055Z,19.43
2023-02-27T17:19:17.674Z,19.48
2023-02-27T17:21:46.115Z,19.49
2023-02-27T17:24:14.624Z,19.53
2023-02-27T17:26:43.644Z,19.53
2023-02-27T17:29:12.143Z,19.58
2023-02-27T17:31:43.092Z,19.59
2023-02-27T17:34:11.670Z,19.60
2023-02-27T17:36:40.148Z,19.61
2023-02-27T17:39:09.067Z,19.60
2023-02-27T17:41:37.609Z,19.59
2023-02-27T17:44:06.393Z,19.59
2023-02-27T17:46:34.819Z,19.59
2023-02-27T17:49:04.690Z,19.58
2023-02-27T17:51:33.631Z,19.57
2023-02-27T17:54:03.132Z,19.58
2023-02-27T17:56:31.722Z,19.56
2023-02-27T17:59:00.257Z,19.58
2023-02-27T18:01:29.076Z,19.57
2023-02-27T18:03:58.037Z,19.57
2023-02-27T18:06:28.726Z,19.58
2023-02-27T18:08:57.466Z,19.56
2023-02-27T18:11:25.856Z,19.56
2023-02-27T18:13:54.334Z,19.55
2023-02-27T18:16:23.973Z,19.55
2023-02-27T18:18:52.422Z,19.55
2023-02-27T18:21:23.024Z,19.54
2023-02-27T18:23:53.370Z,19.53
2023-02-27T18:26:29.914Z,19.54
2023-02-27T18:29:00.457Z,19.56
2023-02-27T18:31:31.277Z,19.59
2023-02-27T18:34:00.338Z,19.62
2023-02-27T18:36:29.380Z,19.65
2023-02-27T18:39:00.110Z,19.66
2023-02-27T18:41:29.359Z,19.67
2023-02-27T18:43:58.396Z,19.66
2023-02-27T18:46:27.409Z,19.71
2023-02-27T18:48:56.725Z,19.70
2023-02-27T18:51:25.618Z,19.74
2023-02-27T18:53:54.452Z,19.79
2023-02-27T18:56:26.282Z,19.82
2023-02-27T18:58:57.397Z,19.84
2023-02-27T19:01:28.318Z,19.88
2023-02-27T19:04:03.701Z,19.90
2023-02-27T19:06:33.571Z,19.93
2023-02-27T19:09:02.014Z,19.94
2023-02-27T19:11:33.958Z,19.96
2023-02-27T19:14:04.432Z,19.93
2023-02-27T19:16:33.303Z,19.93
2023-02-27T19:19:04.901Z,19.93
2023-02-27T19:21:34.198Z,19.95
2023-02-27T19:24:02.902Z,19.97
2023-02-27T19:26:34.674Z,20.01
2023-02-27T19:29:03.290Z,19.99
2023-02-27T19:31:32.386Z,19.96
2023-02-27T19:34:01.097Z,19.99
2023-02-27T19:36:31.110Z,20.04
2023-02-27T19:39:00.174Z,20.01
2023-02-27T19:41:30.034Z,20.03
2023-02-27T19:44:00.901Z,20.04
2023-02-27T19:46:31.836Z,20.02
2023-02-27T19:49:02.924Z,19.99
2023-02-27T19:51:31.684Z,19.94
2023-02-27T19:54:00.805Z,19.93
2023-02-27T19:56:30.248Z,19.93
2023-02-27T19:59:00.984Z,19.93
2023-02-27T20:01:32.503Z,19.93
2023-02-27T20:04:01.536Z,19.95
2023-02-27T20:06:33.031Z,19.91
2023-02-27T20:09:01.717Z,19.89
2023-02-27T20:11:31.002Z,19.88
2023-02-27T20:14:01.225Z,19.89
2023-02-27T20:16:30.814Z,19.91
2023-02-27T20:18:59.551Z,19.92
2023-02-27T20:21:28.783Z,19.93
2023-02-27T20:23:58.867Z,19.90
2023-02-27T20:26:30.729Z,19.92
2023-02-27T20:29:02.764Z,19.90
2023-02-27T20:31:32.844Z,19.95
2023-02-27T20:34:01.882Z,19.97
2023-02-27T20:36:30.543Z,19.96
2023-02-27T20:38:58.986Z,19.95
2023-02-27T20:41:29.786Z,19.96
2023-02-27T20:43:59.782Z,19.98
2023-02-27T20:46:30.082Z,19.97
2023-02-27T20:49:00.298Z,19.96
2023-02-27T20:51:31.175Z,19.95
2023-02-27T20:54:00.917Z,19.93
2023-02-27T20:56:32.054Z,19.98
2023-02-27T20:59:04.418Z,20.00
2023-02-27T21:01:34.080Z,19.99
2023-02-27T21:04:03.223Z,19.96
2023-02-27T21:06:32.101Z,19.94
2023-02-27T21:09:03.460Z,19.92
2023-02-27T21:11:33.794Z,19.96
2023-02-27T21:14:06.617Z,19.99
2023-02-27T21:16:35.127Z,19.99
2023-02-27T21:19:03.635Z,19.99
2023-02-27T21:21:34.382Z,19.95
2023-02-27T21:24:02.880Z,19.93
2023-02-27T21:26:35.308Z,19.89
2023-02-27T21:29:08.642Z,19.87
2023-02-27T21:31:39.235Z,19.83
2023-02-27T21:34:09.913Z,19.77
2023-02-27T21:36:42.128Z,19.77
2023-02-27T21:39:14.852Z,19.75
2023-02-27T21:41:43.696Z,19.73
2023-02-27T21:44:15.294Z,19.71
2023-02-27T21:46:44.013Z,19.71
2023-02-27T21:49:16.906Z,19.68
2023-02-27T21:51:45.769Z,19.68
2023-02-27T21:54:15.452Z,19.66
2023-02-27T21:56:45.060Z,19.64
2023-02-27T21:59:15.524Z,19.63
2023-02-27T22:01:47.152Z,19.62
2023-02-27T22:04:15.904Z,19.59
2023-02-27T22:06:44.324Z,19.56
2023-02-27T22:09:12.952Z,19.52
2023-02-27T22:11:41.733Z,19.50
2023-02-27T22:14:12.384Z,19.46
2023-02-27T22:16:42.628Z,19.44
2023-02-27T22:19:14.096Z,19.42
2023-02-27T22:21:42.590Z,19.40
2023-02-27T22:24:11.351Z,19.37
2023-02-27T22:26:39.969Z,19.34
2023-02-27T22:29:08.822Z,19.30
2023-02-27T22:31:39.121Z,19.28
2023-02-27T22:34:13.874Z,19.26
2023-02-27T22:36:42.314Z,19.23
2023-02-27T22:39:12.214Z,19.18
2023-02-27T22:41:44.011Z,19.18
2023-02-27T22:44:14.443Z,19.15
2023-02-27T22:46:45.361Z,19.11
2023-02-27T22:49:17.829Z,19.08
2023-02-27T22:51:46.572Z,19.09
2023-02-27T22:54:16.290Z,19.07
2023-02-27T22:56:45.143Z,19.05
2023-02-27T22:59:14.983Z,19.04
2023-02-27T23:01:43.525Z,19.02
2023-02-27T23:04:12.453Z,19.01
2023-02-27T23:06:42.963Z,18.99
2023-02-27T23:09:14.810Z,18.98
2023-02-27T23:11:44.102Z,18.97
2023-02-27T23:14:13.318Z,18.96
2023-02-27T23:16:45.396Z,18.95
2023-02-27T23:19:15.843Z,18.93
2023-02-27T23:21:45.818Z,18.91
2023-02-27T23:24:16.431Z,18.90
2023-02-27T23:26:47.229Z,18.90
2023-02-27T23:29:16.287Z,18.88
2023-02-27T23:31:45.174Z,18.86
2023-02-27T23:34:14.004Z,18.85
2023-02-27T23:36:42.419Z,18.84
2023-02-27T23:39:12.261Z,18.84
2023-02-27T23:41:40.724Z,18.81
2023-02-27T23:44:26.448Z,18.81
2023-02-27T23:46:54.890Z,18.79
2023-02-27T23:49:23.513Z,18.78
2023-02-27T23:51:51.924Z,18.78
2023-02-27T23:54:21.663Z,18.77
2023-02-27T23:56:50.170Z,18.76
2023-02-27T23:59:18.626Z,18.74
